Station: Karoonda  

  Atmospheric Gas Attenuation - ITU Rec 676-11   ----------------- dB/100km -----------------
Date Time Temp RH % AH g/m3 Dew Point Wind Direction Speed kph Gust kph Barometer mB Rainfall Since 9am 24GHz 47GHz 76GHz 122GHz 134GHz 241GHz
08/05 09:00 14 93 11.22 12.9 13 1013.1 0 25.2 30.3 50.7 133.5 134.3 464.0
07/05 09:00 11 80 8.01 7.7 4 1013.1 0.8 18.5 25.7 38.8 101.7 94.0 322.7
04/05 09:00 13.2 95 10.91 12.5 6 1013.1 0.4 24.6 30.0 49.9 131.3 131.2 453.2
03/05 09:00 14.8 77 9.75 10.8 11 1013.1 8 22.0 27.5 43.9 115.5 112.4 387.7
02/05 09:00 23.7 51 10.91 13.2 20 1013.1 0 24.0 26.6 43.6 114.8 114.5 396.2
01/05 09:00 18 62 9.52 10.6 19 1013.1 0 21.3 26.1 41.3 108.5 104.9 361.8
26/04 09:00 17.5 90 13.42 15.8 4 1013.1 0.6 29.7 32.9 58.0 153.1 159.6 552.8
24/04 09:00 16 59 8.04 8.1 7 1013.1 0 18.3 24.4 36.5 95.8 88.5 304.3
23/04 09:00 16 79 10.76 12.4 7 1013.1 0.2 24.1 28.8 47.5 124.9 124.4 429.8
22/04 09:00 23 44 9.04 10.3 7 1013.1 0.4 20.1 24.0 37.1 97.3 92.7 319.7
18/04 09:00 14.5 52 6.47 4.9 7 1013.1 0 15.0 22.4 31.3 81.8 70.7 241.6
17/04 09:00 15 89 11.41 13.2 15 1013.1 0.4 25.5 30.2 50.9 134.0 135.3 467.5
15/04 09:00 16 79 10.76 12.4 2 1013.1 0 24.1 28.8 47.5 124.9 124.4 429.8
12/04 09:00 13.8 83 9.89 11 6 1013.1 2 22.4 28.0 45.1 118.6 115.8 399.5
09/04 09:00 18.3 95 14.85 17.5 6 1013.1 5 32.7 35.2 63.9 168.8 179.2 621.2
07/04 09:00 16.5 74 10.39 11.9 19 1013.1 0 23.3 28.0 45.6 120.0 118.6 409.4
06/04 09:00 22.6 76 15.27 18.1 4 1013.1 3 33.3 34.2 62.3 164.5 175.3 608.2
05/04 09:00 18 53 8.14 8.3 0 1013.1 18.4 24.0 36.0 94.4 87.6 301.0
04/04 09:00 12.9 67 7.55 6.9 4 1013.1 0 17.4 24.5 36.1 94.5 85.8 294.1
03/04 09:00 13 93 10.55 11.9 11 1013.1 0 23.8 29.4 48.4 127.4 126.4 436.2
31/03 09:00 17.8 60 9.11 10.1 4 1013.1 0 20.5 25.5 39.8 104.5 99.9 344.3
30/03 09:00 13.5 82 9.59 10.6 2 1013.1 0 21.7 27.6 44.0 115.7 112.1 386.5
28/03 09:00 14 91 10.98 12.5 7 1013.1 0 24.7 29.8 49.6 130.7 130.9 452.0
27/03 09:00 12 76 8.1 7.9 17 1013.1 0 18.6 25.6 38.7 101.4 94.0 322.8
26/03 09:00 15.5 90 11.9 13.9 4 1013.1 0 26.6 30.9 52.7 138.9 141.4 489.0
24/03 09:00 22.2 63 12.37 14.8 2 1013.1 0 27.1 29.4 50.3 132.5 135.8 470.3
23/03 09:00 13.5 97 11.35 13 0 1013.1 0 25.5 30.7 51.6 135.9 137.1 473.7
22/03 09:00 13.2 100 11.48 13.2 0 1013.1 0 25.8 31.0 52.4 138.0 139.5 482.2
21/03 09:00 16 79 10.76 12.4 20 1013.1 0 24.1 28.8 47.5 124.9 124.4 429.8
18/03 09:00 19 100 16.29 19 0 1013.1 2 35.7 37.6 70.1 185.3 199.7 692.6
17/03 09:00 17 95 13.75 16.2 9 1013.1 19 30.4 33.7 59.9 158.1 165.6 573.6
16/03 09:00 17 82 11.86 14 7 1013.1 0.4 26.4 30.3 51.5 135.7 138.1 477.6
15/03 09:00 16.9 78 11.22 13 2 1013.1 0 25.0 29.3 48.8 128.6 129.3 446.9
12/03 09:00 15 71 9.1 9.8 6 1013.1 0 20.6 26.3 41.2 108.2 103.4 356.3
09/03 09:00 16.6 78 11.02 12.8 4 1013.1 0 24.6 29.0 48.2 126.9 127.0 438.9
07/03 09:00 18.3 72 11.26 13.2 4 1013.1 0 25.0 28.9 48.1 126.8 127.5 440.8
05/03 09:00 15 93 11.93 13.9 6 1013.1 0 26.7 31.2 53.2 140.1 142.8 493.7
03/03 09:00 15.1 93 12 14 9 1013.1 0 26.8 31.3 53.4 140.8 143.6 496.6
02/03 09:00 17.3 100 14.73 17.3 6 1013.1 51 32.5 35.4 64.2 169.6 179.8 623.0
01/03 09:00 21.5 95 17.91 20.7 19 1013.1 41 39.0 39.6 75.5 199.7 218.1 757.2
27/02 09:00 23 67 13.77 16.5 6 1013.1 0 30.0 31.5 55.5 146.5 153.3 531.4
26/02 09:00 17.2 68 9.96 11.3 7 1013.1 0 22.3 27.1 43.5 114.3 111.8 385.7
25/02 09:00 18.5 66 10.44 12.2 9 1013.1 0 23.3 27.5 44.7 117.5 116.2 401.3
24/02 09:00 18.7 62 9.93 11.4 7 1013.1 0 22.2 26.6 42.5 111.8 109.2 377.0
23/02 09:00 16.1 66 9.05 9.8 6 1013.1 0.2 20.4 25.9 40.4 106.1 101.3 349.1
22/02 09:00 22.6 68 13.66 16.4 0 1013.1 0 29.8 31.4 55.3 146.0 152.6 528.9
21/02 09:00 19 80 13.04 15.6 2 1013.1 0 28.8 31.7 55.2 145.7 151.0 523.0
20/02 09:00 21 60 10.99 13.1 11 1013.1 0 24.3 27.6 45.5 119.6 119.6 413.6
19/02 09:00 17.4 88 13.04 15.4 2 1013.1 0 28.9 32.3 56.4 148.8 154.2 534.1
17/02 09:00 29.1 51 14.73 18 17 1013.1 0 31.6 30.9 55.1 145.6 154.0 534.7
16/02 09:00 28.7 43 12.15 15.1 7 1013.1 0 26.3 27.0 45.5 119.9 122.3 423.9
14/02 09:00 17.3 62 9.13 9.9 11 1013.1 0 20.5 25.7 40.1 105.4 100.8 347.4
13/02 09:00 14 57 6.88 5.6 11 1013.1 0 15.9 23.1 33.0 86.4 76.2 260.7
11/02 09:00 9 1013.1 0
09/02 09:00 18.2 76 11.81 14 4 1013.1 0 26.2 29.8 50.5 133.1 135.2 467.8
07/02 09:00 28.5 18 5.03 2 19 1013.1 0 11.6 17.5 22.2 57.6 45.5 154.3
06/02 09:00 16.8 72 10.29 11.7 11 1013.1 0 23.0 27.7 45.0 118.5 116.8 403.1
05/02 09:00 18 76 11.67 13.8 4 1013.1 0 25.9 29.7 50.0 131.8 133.6 462.2
03/02 09:00 19 39 6.35 4.7 6 1013.1 0 14.6 21.2 29.2 76.3 65.5 223.8
02/02 09:00 13.9 49 5.87 3.5 2 1013.1 0 13.8 21.7 29.4 76.6 64.1 218.1
31/01 09:00 21.6 84 15.93 18.9 11 1013.1 0.8 34.7 35.8 66.1 174.6 187.4 650.3
30/01 09:00 25 47 10.82 13 11 1013.1 0 23.7 26.1 42.6 112.1 111.6 386.0
28/01 09:00 26.5 60 15.02 18.3 9 1013.1 0 32.4 32.3 58.2 153.7 163.2 566.4
27/01 09:00 34.5 17 6.55 6 15 1013.1 0 14.5 18.2 24.9 64.9 56.2 192.7
24/01 09:00 31.7 18 5.98 4.9 7 1013.1 0 13.4 18.1 24.1 62.7 52.6 179.8
16/01 09:00 19 59 9.61 10.9 9 1013.1 0 21.5 26.0 41.1 108.1 104.7 361.3
15/01 09:00 18.5 65 10.28 11.8 7 1013.1 0 22.9 27.2 44.0 115.8 114.1 394.0
14/01 09:00 17.7 64 9.66 10.8 2 1013.1 0 21.7 26.4 42.0 110.4 107.1 369.5
12/01 09:00 15.1 56 7.22 6.5 2 1013.1 0 16.6 23.4 33.8 88.6 79.3 271.8
11/01 09:00 17 63 9.12 10 4 1013.1 0 20.5 25.8 40.2 105.7 101.1 348.3
09/01 09:00 36.2 26 10.94 14 15 1013.1 0 23.3 23.3 37.6 98.8 98.4 341.0
08/01 09:00 33 30 10.68 13.1 0 1013.1 0 23.0 23.7 38.2 100.4 99.4 344.4
07/01 09:00 34.2 21 7.97 9.1 15 1013.1 0 17.4 20.0 29.1 76.3 70.0 241.4
05/01 09:00 19.3 56 9.29 10.4 4 1013.1 0 20.8 25.4 39.8 104.4 100.3 345.8
04/01 09:00 16.5 78 10.95 12.7 9 1013.1 0 24.5 28.9 48.0 126.2 126.2 436.1
29/12 09:00 31 17 5.44 3.4 6 1013.1 0 12.3 17.6 22.7 59.0 47.9 163.3
28/12 09:00 26 23 5.6 3.7 4 1013.1 0 12.8 18.7 24.6 63.9 52.5 178.8
26/12 09:00 14.7 49 6.17 4.1 13 1013.1 0 14.4 21.9 30.2 78.7 67.0 228.4
25/12 09:00 14.9 55 7.01 6 6 1013.1 0 16.2 23.1 33.1 86.7 76.9 263.4
23/12 09:00 16.8 57 8.15 8.2 7 1013.1 0 18.5 24.3 36.6 96.0 89.0 306.0
20/12 09:00 17.3 68 10.02 11.4 4 1013.1 0 22.4 27.1 43.7 114.8 112.4 388.0
19/12 09:00 25.2 55 12.8 15.7 13 1013.1 0 27.8 29.1 50.1 132.0 136.2 472.1
18/12 09:00 29.4 35 10.28 12.6 4 1013.1 0 22.3 24.1 38.5 101.2 99.4 343.9
17/12 09:00 26 34 8.28 9.2 4 1013.1 0 18.4 22.2 33.1 86.9 80.8 278.2
16/12 09:00 17.1 46 6.7 5.5 2 1013.1 0 15.4 22.1 31.2 81.4 71.2 243.4
15/12 09:00 16.3 58 8.05 8.2 6 1013.1 0 18.3 24.3 36.5 95.5 88.3 303.6
13/12 09:00 18.5 80 12.66 15.1 6 1013.1 0 28.0 31.2 53.9 142.2 146.6 507.5
12/12 09:00 27.3 29 7.59 8.1 6 1013.1 0 16.9 21.0 30.4 79.5 72.1 247.8
11/12 09:00 21.4 39 7.31 7 6 1013.1 0 16.5 22.0 31.6 82.8 74.3 255.0
07/12 09:00 15.5 49 6.48 4.9 7 1013.1 0.2 15.0 22.2 31.0 80.9 70.0 239.0
06/12 09:00 19.4 56 9.34 10.5 7 1013.1 0 20.9 25.5 39.9 104.8 100.8 347.5
05/12 09:00 19.5 59 9.9 11.3 4 1013.1 0 22.1 26.3 42.0 110.4 107.7 371.9
01/12 09:00 12.5 83 9.13 9.8 9 1013.1 0.8 20.8 27.2 42.6 112.0 107.3 369.3
29/11 09:00 15.4 83 10.9 12.5 4 1013.1 12 24.4 29.2 48.4 127.5 127.3 439.9
28/11 09:00 16.5 64 8.99 9.8 4 1013.1 0 20.3 25.7 40.0 105.0 100.0 344.6
24/11 09:00 23.8 57 12.26 14.9 9 1013.1 0 26.8 28.7 48.8 128.7 131.6 455.8
20/11 09:00 15.5 54 7.14 6.2 7 1013.1 0 16.4 23.2 33.4 87.3 77.9 267.0
17/11 09:00 12.6 81 8.96 9.5 7 1013.1 3 20.4 26.8 41.9 110.0 104.8 360.7
16/11 09:00 15.9 64 8.67 9.1 15 1013.1 0.4 19.6 25.4 39.0 102.4 96.7 332.7
13/11 09:00 18.5 35 5.54 2.7 0 1013.1 0 12.9 20.2 26.7 69.4 56.8 193.3

Last Refresh: 08-May-2026 12:10:11

Bureau of Meteorology